createdAt,value
2017-06-21T16:36:56.466Z,1001.32
2017-06-21T16:37:56.509Z,1001.34
2017-06-21T16:38:56.552Z,1001.29
2017-06-21T16:39:56.595Z,1001.36
2017-06-21T16:40:56.637Z,1001.29
2017-06-21T16:41:56.686Z,1001.32
2017-06-21T16:42:56.726Z,1001.32
2017-06-21T16:43:56.769Z,1001.34
2017-06-21T16:44:56.813Z,1001.38
2017-06-21T16:45:56.858Z,1001.34
2017-06-21T16:46:56.900Z,1001.34
2017-06-21T16:47:56.945Z,1001.3
2017-06-21T16:48:56.990Z,1001.31
2017-06-21T16:49:57.036Z,1001.32
2017-06-21T16:50:57.078Z,1001.35
2017-06-21T16:51:57.123Z,1001.32
2017-06-21T16:52:57.167Z,1001.36
2017-06-21T16:53:57.210Z,1001.36
2017-06-21T16:54:57.256Z,1001.35
2017-06-21T16:55:57.301Z,1001.39
2017-06-21T16:56:57.347Z,1001.36
2017-06-21T16:57:57.389Z,1001.42
2017-06-21T16:58:57.433Z,1001.39
2017-06-21T16:59:57.479Z,1001.39
2017-06-21T17:00:57.523Z,1001.38
2017-06-21T17:01:57.568Z,1001.39
2017-06-21T17:02:57.613Z,1001.36
2017-06-21T17:03:57.657Z,1001.34
2017-06-21T17:04:57.701Z,1001.39
2017-06-21T17:05:57.747Z,1001.4
2017-06-21T17:06:57.791Z,1001.42
2017-06-21T17:07:57.840Z,1001.37
2017-06-21T17:08:57.885Z,1001.4
2017-06-21T17:09:57.926Z,1001.35
2017-06-21T17:10:57.970Z,1001.34
2017-06-21T17:11:58.015Z,1001.32
2017-06-21T17:12:58.059Z,1001.29
2017-06-21T17:13:58.104Z,1001.29
2017-06-21T17:14:58.150Z,1001.29
2017-06-21T17:15:58.196Z,1001.26
2017-06-21T17:16:58.240Z,1001.3
2017-06-21T17:17:58.285Z,1001.24
2017-06-21T17:18:58.334Z,1001.24
2017-06-21T17:19:58.374Z,1001.26
2017-06-21T17:20:58.417Z,1001.27
2017-06-21T17:21:58.462Z,1001.26
2017-06-21T17:22:58.510Z,1001.22
2017-06-21T17:23:58.551Z,1001.23
2017-06-21T17:24:58.596Z,1001.18
2017-06-21T17:25:58.640Z,1001.19
2017-06-21T17:26:58.686Z,1001.21
2017-06-21T17:27:58.731Z,1001.17
2017-06-21T17:28:58.775Z,1001.22
2017-06-21T17:29:58.822Z,1001.22
2017-06-21T17:30:58.863Z,1001.2
2017-06-21T17:31:58.910Z,1001.18
2017-06-21T17:32:58.956Z,1001.19
2017-06-21T17:33:59.000Z,1001.19
2017-06-21T17:34:59.042Z,1001.23
2017-06-21T17:35:59.087Z,1001.19
2017-06-21T17:36:59.132Z,1001.16
2017-06-21T17:37:59.178Z,1001.19
2017-06-21T17:38:59.221Z,1001.18
2017-06-21T17:39:59.274Z,1001.19
2017-06-21T17:40:59.311Z,1001.2
2017-06-21T17:41:59.355Z,1001.21
2017-06-21T17:42:59.400Z,1001.19
2017-06-21T17:43:59.447Z,1001.21
2017-06-21T17:44:59.489Z,1001.22
2017-06-21T17:45:59.532Z,1001.23
2017-06-21T17:46:59.577Z,1001.19
2017-06-21T17:47:59.624Z,1001.22
2017-06-21T17:48:59.666Z,1001.2
2017-06-21T17:49:59.711Z,1001.22
2017-06-21T17:50:59.756Z,1001.18
2017-06-21T17:51:59.800Z,1001.16
2017-06-21T17:52:59.843Z,1001.19
2017-06-21T17:53:59.890Z,1001.17
2017-06-21T17:54:59.934Z,1001.17
2017-06-21T17:55:59.979Z,1001.15
2017-06-21T17:57:00.024Z,1001.19
2017-06-21T17:58:00.068Z,1001.18
2017-06-21T17:59:00.113Z,1001.14
2017-06-21T18:00:00.156Z,1001.14
2017-06-21T18:01:00.199Z,1001.18
2017-06-21T18:02:00.245Z,1001.17
2017-06-21T18:03:00.290Z,1001.15
2017-06-21T18:04:00.332Z,1001.14
2017-06-21T18:05:00.378Z,1001.12
2017-06-21T18:06:00.421Z,1001.08
2017-06-21T18:07:00.468Z,1001.09
2017-06-21T18:08:00.510Z,1001.12
2017-06-21T18:09:00.555Z,1001.1
2017-06-21T18:10:00.599Z,1001.07
2017-06-21T18:11:00.645Z,1001.07
2017-06-21T18:12:00.688Z,1001.06
2017-06-21T18:13:00.732Z,1001.01
2017-06-21T18:14:00.777Z,1001
2017-06-21T18:15:00.822Z,1000.97
2017-06-21T18:16:00.866Z,1000.96
2017-06-21T18:17:00.910Z,1001
2017-06-21T18:18:00.953Z,1001.03
2017-06-21T18:19:00.997Z,1001.01
2017-06-21T18:20:01.042Z,1001.04
2017-06-21T18:21:01.086Z,1001
2017-06-21T18:22:01.129Z,1001.03
2017-06-21T18:23:01.175Z,1001.04
2017-06-21T18:24:01.219Z,1001.07
2017-06-21T18:25:01.262Z,1001.11
2017-06-21T18:26:01.306Z,1001.07
2017-06-21T18:27:01.350Z,1001.09
2017-06-21T18:28:01.394Z,1001.05
2017-06-21T18:29:01.438Z,1001.07
2017-06-21T18:30:01.480Z,1001.06
2017-06-21T18:31:01.525Z,1001.08
2017-06-21T18:32:01.576Z,1001.08
2017-06-21T18:33:01.614Z,1001.09
2017-06-21T18:34:01.658Z,1001.1
2017-06-21T18:35:01.702Z,1001.07
2017-06-21T18:36:01.746Z,1001.09
2017-06-21T18:37:01.789Z,1001.05
2017-06-21T18:38:01.835Z,1001.08
2017-06-21T18:39:01.876Z,1001.07
2017-06-21T18:40:01.920Z,1001.07
2017-06-21T18:41:01.965Z,1001.08
2017-06-21T18:42:02.023Z,1001.05
2017-06-21T18:43:02.064Z,1001.03
2017-06-21T18:44:02.110Z,1001.02
2017-06-21T18:45:02.139Z,1001.05
2017-06-21T18:46:02.196Z,1001.01
2017-06-21T18:47:02.244Z,1001.02
2017-06-21T18:48:02.270Z,1001.03
2017-06-21T18:49:02.315Z,1001.02
2017-06-21T18:50:02.358Z,1001.03
2017-06-21T18:51:02.400Z,1001.04
2017-06-21T18:52:02.444Z,1001.04
2017-06-21T18:53:02.488Z,1001.07
2017-06-21T18:54:02.532Z,1001.05
2017-06-21T18:55:02.575Z,1001.06
2017-06-21T18:56:02.618Z,1001.07
2017-06-21T18:57:02.660Z,1001.05
2017-06-21T18:58:02.706Z,1001.09
2017-06-21T18:59:02.749Z,1001.02
2017-06-21T19:00:02.791Z,1001.05
2017-06-21T19:01:02.835Z,1001.08
2017-06-21T19:02:02.879Z,1001.08
2017-06-21T19:03:02.921Z,1001.13
2017-06-21T19:04:02.966Z,1001.13
2017-06-21T19:05:03.009Z,1001.14
2017-06-21T19:06:03.051Z,1001.18
2017-06-21T19:07:03.095Z,1001.25
2017-06-21T19:08:03.138Z,1001.25
2017-06-21T19:09:03.183Z,1001.28
2017-06-21T19:10:03.224Z,1001.26
2017-06-21T19:11:03.269Z,1001.27
2017-06-21T19:12:03.312Z,1001.28
2017-06-21T19:13:03.355Z,1001.27
2017-06-21T19:14:03.397Z,1001.26
2017-06-21T19:15:03.440Z,1001.23
2017-06-21T19:16:03.484Z,1001.27
2017-06-21T19:17:03.528Z,1001.26
2017-06-21T19:18:03.571Z,1001.27
2017-06-21T19:19:03.616Z,1001.29
2017-06-21T19:20:03.658Z,1001.36
2017-06-21T19:21:03.699Z,1001.32
2017-06-21T19:22:03.744Z,1001.34
2017-06-21T19:23:03.787Z,1001.34
2017-06-21T19:24:03.829Z,1001.35
2017-06-21T19:25:03.874Z,1001.42
2017-06-21T19:26:03.915Z,1001.43
2017-06-21T19:27:03.958Z,1001.44
2017-06-21T19:28:04.001Z,1001.47
2017-06-21T19:29:04.044Z,1001.52
2017-06-21T19:30:04.089Z,1001.53
2017-06-21T19:31:04.131Z,1001.56
2017-06-21T19:32:04.173Z,1001.54
2017-06-21T19:33:04.216Z,1001.57
2017-06-21T19:34:04.260Z,1001.57
2017-06-21T19:35:04.303Z,1001.57
2017-06-21T19:36:04.343Z,1001.57
2017-06-21T19:37:04.387Z,1001.59
2017-06-21T19:38:04.430Z,1001.59
2017-06-21T19:39:04.471Z,1001.58
2017-06-21T19:40:04.517Z,1001.59
2017-06-21T19:41:04.559Z,1001.6
2017-06-21T19:42:04.600Z,1001.62
2017-06-21T19:43:04.644Z,1001.62
2017-06-21T19:44:04.687Z,1001.62
2017-06-21T19:45:04.736Z,1001.64
2017-06-21T19:46:04.774Z,1001.66
2017-06-21T19:47:04.815Z,1001.61
2017-06-21T19:48:04.863Z,1001.63
2017-06-21T19:49:04.899Z,1001.63
2017-06-21T19:50:04.941Z,1001.57
2017-06-21T19:51:04.985Z,1001.61
2017-06-21T19:52:05.027Z,1001.59
2017-06-21T19:53:05.071Z,1001.59
2017-06-21T19:54:05.112Z,1001.58
2017-06-21T19:55:05.156Z,1001.58
2017-06-21T19:56:05.198Z,1001.59
2017-06-21T19:57:05.239Z,1001.55
2017-06-21T19:58:05.283Z,1001.57
2017-06-21T19:59:05.326Z,1001.57
2017-06-21T20:00:05.370Z,1001.59
2017-06-21T20:01:05.409Z,1001.59
2017-06-21T20:02:05.453Z,1001.6
2017-06-21T20:03:05.496Z,1001.59
2017-06-21T20:04:05.537Z,1001.58
2017-06-21T20:05:05.578Z,1001.57
2017-06-21T20:06:05.621Z,1001.54
2017-06-21T20:07:05.665Z,1001.54
2017-06-21T20:08:05.705Z,1001.52
2017-06-21T20:09:05.748Z,1001.58
2017-06-21T20:10:05.792Z,1001.57
2017-06-21T20:11:05.832Z,1001.57
2017-06-21T20:12:05.876Z,1001.59
2017-06-21T20:13:05.917Z,1001.54
2017-06-21T20:14:05.960Z,1001.53
2017-06-21T20:15:06.001Z,1001.55
2017-06-21T20:16:06.044Z,1001.51
2017-06-21T20:17:06.086Z,1001.51
2017-06-21T20:18:06.128Z,1001.53
2017-06-21T20:19:06.169Z,1001.52
2017-06-21T20:20:06.213Z,1001.54
2017-06-21T20:21:06.254Z,1001.51
2017-06-21T20:22:06.296Z,1001.54
2017-06-21T20:23:06.338Z,1001.55
2017-06-21T20:24:06.380Z,1001.55
2017-06-21T20:25:06.422Z,1001.55
2017-06-21T20:26:06.463Z,1001.54
2017-06-21T20:27:06.505Z,1001.57
2017-06-21T20:28:06.548Z,1001.55
2017-06-21T20:29:06.589Z,1001.52
2017-06-21T20:30:06.631Z,1001.51
2017-06-21T20:31:06.671Z,1001.56
2017-06-21T20:32:06.715Z,1001.54
2017-06-21T20:33:06.758Z,1001.51
2017-06-21T20:34:06.798Z,1001.52
2017-06-21T20:35:06.840Z,1001.49
2017-06-21T20:36:06.883Z,1001.48
2017-06-21T20:37:06.924Z,1001.47
2017-06-21T20:38:06.965Z,1001.46
2017-06-21T20:39:07.008Z,1001.45
2017-06-21T20:40:07.049Z,1001.46
2017-06-21T20:41:07.089Z,1001.43
2017-06-21T20:42:07.132Z,1001.46
2017-06-21T20:43:07.174Z,1001.45
2017-06-21T20:44:07.217Z,1001.46
2017-06-21T20:45:07.258Z,1001.44
2017-06-21T20:46:07.299Z,1001.45
2017-06-21T20:47:07.340Z,1001.44
2017-06-21T20:48:07.383Z,1001.46
2017-06-21T20:49:07.423Z,1001.46
2017-06-21T20:50:07.466Z,1001.46
2017-06-21T20:51:07.507Z,1001.49
2017-06-21T20:52:07.547Z,1001.48
2017-06-21T20:53:07.589Z,1001.47
2017-06-21T20:54:07.633Z,1001.47
2017-06-21T20:55:07.673Z,1001.47
2017-06-21T20:56:07.716Z,1001.46
2017-06-21T20:57:07.757Z,1001.46
2017-06-21T20:58:07.798Z,1001.47
2017-06-21T20:59:07.840Z,1001.44
2017-06-21T21:00:07.881Z,1001.42
2017-06-21T21:01:07.924Z,1001.43
2017-06-21T21:02:07.965Z,1001.4
2017-06-21T21:03:08.006Z,1001.39
2017-06-21T21:04:08.047Z,1001.42
2017-06-21T21:05:08.090Z,1001.42
2017-06-21T21:06:08.131Z,1001.37
2017-06-21T21:07:08.173Z,1001.38
2017-06-21T21:08:08.214Z,1001.37
2017-06-21T21:09:08.257Z,1001.34
2017-06-21T21:10:08.301Z,1001.35
2017-06-21T21:11:08.337Z,1001.4
2017-06-21T21:12:08.382Z,1001.39
2017-06-21T21:13:08.423Z,1001.42
2017-06-21T21:14:08.461Z,1001.43
2017-06-21T21:15:08.505Z,1001.47
2017-06-21T21:16:08.545Z,1001.46
2017-06-21T21:17:08.588Z,1001.5
2017-06-21T21:18:08.628Z,1001.48
2017-06-21T21:19:08.668Z,1001.47
2017-06-21T21:20:08.710Z,1001.46
2017-06-21T21:21:08.755Z,1001.42
2017-06-21T21:22:08.794Z,1001.45
2017-06-21T21:23:08.836Z,1001.47
2017-06-21T21:24:08.876Z,1001.49
2017-06-21T21:25:08.919Z,1001.51
2017-06-21T21:26:08.960Z,1001.51
2017-06-21T21:27:09.000Z,1001.51
2017-06-21T21:28:09.043Z,1001.49
2017-06-21T21:29:09.084Z,1001.47
2017-06-21T21:30:09.125Z,1001.5
2017-06-21T21:31:09.166Z,1001.48
2017-06-21T21:32:09.207Z,1001.48
2017-06-21T21:33:09.247Z,1001.48
2017-06-21T21:34:09.289Z,1001.42
2017-06-21T21:35:09.331Z,1001.48
2017-06-21T21:36:09.371Z,1001.43
2017-06-21T21:37:09.413Z,1001.46
2017-06-21T21:38:09.455Z,1001.46
2017-06-21T21:39:09.495Z,1001.43
2017-06-21T21:40:09.537Z,1001.46
2017-06-21T21:41:09.577Z,1001.45
2017-06-21T21:42:09.620Z,1001.48
2017-06-21T21:43:09.659Z,1001.49
2017-06-21T21:44:09.702Z,1001.52
2017-06-21T21:45:09.743Z,1001.53
2017-06-21T21:46:09.785Z,1001.53
2017-06-21T21:47:09.825Z,1001.55
2017-06-21T21:48:09.866Z,1001.5
2017-06-21T21:49:09.906Z,1001.58
2017-06-21T21:50:09.948Z,1001.59
2017-06-21T21:51:09.988Z,1001.61
2017-06-21T21:52:10.029Z,1001.63
2017-06-21T21:53:10.071Z,1001.59
2017-06-21T21:54:10.111Z,1001.61
2017-06-21T21:55:10.153Z,1001.62
2017-06-21T21:56:10.194Z,1001.65
2017-06-21T21:57:10.234Z,1001.61
2017-06-21T21:58:10.276Z,1001.6
2017-06-21T21:59:10.316Z,1001.58
2017-06-21T22:00:10.359Z,1001.58
2017-06-21T22:01:10.400Z,1001.62
2017-06-21T22:02:10.439Z,1001.63
2017-06-21T22:03:10.482Z,1001.64
2017-06-21T22:04:10.523Z,1001.61
2017-06-21T22:05:10.564Z,1001.59
2017-06-21T22:06:10.604Z,1001.59
2017-06-21T22:07:10.645Z,1001.58
2017-06-21T22:08:10.687Z,1001.57
2017-06-21T22:09:10.726Z,1001.61
2017-06-21T22:10:10.767Z,1001.6
2017-06-21T22:11:10.807Z,1001.57
2017-06-21T22:12:10.850Z,1001.55
2017-06-21T22:13:10.890Z,1001.53
2017-06-21T22:14:10.931Z,1001.55
2017-06-21T22:15:10.970Z,1001.56
2017-06-21T22:16:11.012Z,1001.59
2017-06-21T22:17:11.052Z,1001.64
2017-06-21T22:18:11.094Z,1001.63
2017-06-21T22:19:11.135Z,1001.61
2017-06-21T22:20:11.174Z,1001.59
2017-06-21T22:21:11.217Z,1001.57
2017-06-21T22:22:11.256Z,1001.54
2017-06-21T22:23:11.298Z,1001.5
2017-06-21T22:24:11.339Z,1001.49
2017-06-21T22:25:11.378Z,1001.48
2017-06-21T22:26:11.421Z,1001.47
2017-06-21T22:27:11.460Z,1001.43
2017-06-21T22:28:11.502Z,1001.41
2017-06-21T22:29:11.541Z,1001.42
2017-06-21T22:30:11.584Z,1001.46
2017-06-21T22:31:11.624Z,1001.44
2017-06-21T22:32:11.664Z,1001.42
2017-06-21T22:33:11.706Z,1001.46
2017-06-21T22:34:11.745Z,1001.43
2017-06-21T22:35:11.785Z,1001.45
2017-06-21T22:36:11.827Z,1001.45
2017-06-21T22:37:11.867Z,1001.45
2017-06-21T22:38:11.908Z,1001.45
2017-06-21T22:39:11.948Z,1001.42
2017-06-21T22:40:11.989Z,1001.41
2017-06-21T22:41:12.031Z,1001.41
2017-06-21T22:42:12.069Z,1001.39
2017-06-21T22:43:12.112Z,1001.41
2017-06-21T22:44:12.151Z,1001.44
2017-06-21T22:45:12.191Z,1001.39
2017-06-21T22:46:12.233Z,1001.44
2017-06-21T22:47:12.273Z,1001.44
2017-06-21T22:48:12.313Z,1001.46
2017-06-21T22:49:12.354Z,1001.41
2017-06-21T22:50:12.400Z,1001.38
2017-06-21T22:51:12.437Z,1001.42
2017-06-21T22:52:12.488Z,1001.4
2017-06-21T22:53:12.514Z,1001.38
2017-06-21T22:54:12.557Z,1001.42
2017-06-21T22:55:12.596Z,1001.49
2017-06-21T22:56:12.637Z,1001.46
2017-06-21T22:57:12.682Z,1001.45
2017-06-21T22:58:12.719Z,1001.42
2017-06-21T22:59:12.761Z,1001.43
2017-06-21T23:00:12.800Z,1001.42
2017-06-21T23:01:12.842Z,1001.43
2017-06-21T23:02:12.880Z,1001.4
2017-06-21T23:03:12.922Z,1001.4
2017-06-21T23:04:12.961Z,1001.4
2017-06-21T23:05:13.003Z,1001.4
2017-06-21T23:06:13.043Z,1001.41
2017-06-21T23:07:13.083Z,1001.41
2017-06-21T23:08:13.122Z,1001.38
2017-06-21T23:09:13.164Z,1001.39
2017-06-21T23:10:13.204Z,1001.34
2017-06-21T23:11:13.244Z,1001.38
2017-06-21T23:12:13.285Z,1001.37
2017-06-21T23:13:13.326Z,1001.4
2017-06-21T23:14:13.366Z,1001.4
2017-06-21T23:15:13.405Z,1001.42
2017-06-21T23:16:13.445Z,1001.42
2017-06-21T23:17:13.487Z,1001.39
2017-06-21T23:18:13.527Z,1001.36
2017-06-21T23:19:13.566Z,1001.33
2017-06-21T23:20:13.608Z,1001.33
2017-06-21T23:21:13.648Z,1001.36
2017-06-21T23:22:13.687Z,1001.38
2017-06-21T23:23:13.729Z,1001.4
2017-06-21T23:24:13.769Z,1001.43
2017-06-21T23:25:13.810Z,1001.47
2017-06-21T23:26:13.848Z,1001.52
2017-06-21T23:27:13.890Z,1001.48
2017-06-21T23:28:13.930Z,1001.5
2017-06-21T23:29:13.969Z,1001.46
2017-06-21T23:30:14.009Z,1001.4
2017-06-21T23:31:14.050Z,1001.32
2017-06-21T23:32:14.092Z,1001.33
2017-06-21T23:33:14.130Z,1001.34
2017-06-21T23:34:14.171Z,1001.37
2017-06-21T23:35:14.211Z,1001.44
2017-06-21T23:36:14.259Z,1001.44
2017-06-21T23:37:14.292Z,1001.46
2017-06-21T23:38:14.331Z,1001.42
2017-06-21T23:39:14.372Z,1001.46
2017-06-21T23:40:14.412Z,1001.46
2017-06-21T23:41:14.454Z,1001.48
2017-06-21T23:42:14.494Z,1001.47
2017-06-21T23:43:14.533Z,1001.49
2017-06-21T23:44:14.574Z,1001.5
2017-06-21T23:45:14.615Z,1001.49
2017-06-21T23:46:14.654Z,1001.46
2017-06-21T23:47:14.696Z,1001.43
2017-06-21T23:48:14.734Z,1001.41
2017-06-21T23:49:14.774Z,1001.38
2017-06-21T23:50:14.816Z,1001.32
2017-06-21T23:51:14.856Z,1001.32
2017-06-21T23:52:14.896Z,1001.3
2017-06-21T23:53:14.936Z,1001.28
2017-06-21T23:54:14.977Z,1001.3
2017-06-21T23:55:15.016Z,1001.34
2017-06-21T23:56:15.056Z,1001.35
2017-06-21T23:57:15.099Z,1001.36
2017-06-21T23:58:15.136Z,1001.36
2017-06-21T23:59:15.177Z,1001.33
